Ahoskie, NC

9:40 AM EDT on July 10, 2014 (GMT -0400)
Tri County (KASJ) Elev 69 ft | 36.30 °N, 77.17 °W | Change Station

Current weather conditions updated 25 minutes ago

Clear
Clear
75 °F
Feels Like 75 °F
N
0
Wind Variable Wind from North

Today is forecast to be Cooler than yesterday. Showers and thunderstorms.

Today
High -- | Low -- °F
--% Chance of Precip.
Yesterday
High -- | Low -- °F
Precip. -- in
5:58 AM 8:27 PM
Waxing Gibbous, 95% visible
Pressure 30.09 in
Visibility 5.0 miles
Clouds Clear
Dew Point 73 °F
Humidity 92%
Rainfall 0.04 in
Snow Depth Not available.
UV 4 out of 12
Pollen 3.50 out of 12
Air Quality Not available.
Flu Activity No Activity
METAR KASJ 101315Z AUTO 00000KT 5SM CLR 24/23 A3009 RMK AO2 T02400227

More Conditions Fewer Conditions

Pressure 30.09 in
Visibility 5.0 miles
Clouds Clear
Dew Point 73 °F
Humidity 92%
Rainfall 0.04 in
Snow Depth Not available.
UV 4 out of 12
Pollen 3.50 out of 12
Air Quality Not available.
Flu Activity No Activity
METAR KASJ 101315Z AUTO 00000KT 5SM CLR 24/23 A3009 RMK AO2 T02400227

More Conditions Fewer Conditions

10-Day Weather Forecast

Almanac

Astronomy

Jul. 10, 2014 Rise Set
Actual Time 5:58 AM EDT 8:27 PM EDT
Civil Twilight 5:28 AM EDT 8:57 PM EDT
Nautical Twilight 4:51 AM EDT 9:34 PM EDT
Astronomical Twilight 4:11 AM EDT 10:15 PM EDT
Moon 6:40 PM EDT 4:06 AM EDT
Length of Visible Light 15h 28m
Length of Day
14h 28m
Tomorrow will be 0m 59s shorter.
Waxing Gibbous, 95% of the Moon is Illuminated
Today
Waxing Gibbous
Jul 12
Full
Jul 18
Last Quarter
Jul 26
New
Aug 3
First Quarter

Today's Extremes

State Highs State Lows

Community

WunderPhotos

Upload Photos

1,732,140 photos uploaded!

Nearby

Snow Depth

Station Depth Elevation
No new snow has been reported.

Earthquake Activity

City Distance Mag. Time & Date
No recent earthquake activity has been reported nearby.
Minimum magnitude displayed is 2.5.

Coastal Water Temperatures

Place Temperature
Oregon Inlet Marina, NC 82.9 °F
Duck Pier, NC 63.0 °F
Hatteras, NC 82.0 °F
Money Point, VA 82.0 °F
Sewells Point, VA 79.0 °F
Chesapeake Bay Bridge Tunnel, VA 70.0 °F

Nearby Weather Stations

Station Location Temp. Heat Index Dew Point Humidity Wind Precip. Elev Updated Type
Nowell Farm Road, Colerain, NC 77.4 °F 79 °F 75 °F 92% SSW  at  7.4 mph 0.00 in / hr 75 ft 9:39 AM EDT Rapid Fire
Ashley's Grove, Conway, NC 76.4 °F 76 °F 76 °F 97% South  at  3.0 mph 0.00 in / hr 65 ft 9:40 AM EDT Rapid Fire
Conway - 35S, Conway, NC 76.8 °F 77 °F 76 °F 97% SSW  at  1.0 mph 0.00 in / hr 105 ft 9:39 AM EDT Normal
RAWS GREENS CROSS NC, Windsor, NC 75 °F 72 °F 75 °F 99% SSE  at  1 mph 0.00 in / hr 41 ft 6:17 AM EDT MADIS

Show More Stations Show Fewer Stations